Time;durP1;ratioP1;P1;durP2;ratioP2;P2;SDS_P1;SDS_P2;PMS_P1;PMS_P2;Temp;Humidity;BMP_temperature;BMP_pressure;BME280_temperature;BME280_humidity;BME280_pressure;Samples;Min_cycle;Max_cycle;Signal;HPM_P1;HPM_P2
2024/01/17 00:00:44;;;;;;;7.35;1.23;;;22.00;48.90;;;;;;5048568;28;20077;-53
2024/01/17 00:03:10;;;;;;;6.30;1.10;;;21.90;48.70;;;;;;5046153;28;20082;-53
2024/01/17 00:05:37;;;;;;;8.13;1.50;;;21.80;48.50;;;;;;5059820;28;20088;-48
2024/01/17 00:08:04;;;;;;;9.65;1.33;;;21.80;49.10;;;;;;5044863;28;20524;-47
2024/01/17 00:10:30;;;;;;;6.25;1.35;;;21.80;48.50;;;;;;5059865;28;20543;-49
2024/01/17 00:12:57;;;;;;;6.25;1.10;;;21.60;50.50;;;;;;5062413;28;20250;-50
2024/01/17 00:15:23;;;;;;;1.92;1.00;;;21.60;50.30;;;;;;5063321;28;20100;-51
2024/01/17 00:17:50;;;;;;;7.40;1.15;;;21.50;49.00;;;;;;5063500;28;20543;-50
2024/01/17 00:20:17;;;;;;;5.50;1.00;;;21.40;49.20;;;;;;5047799;28;20077;-49
2024/01/17 00:22:44;;;;;;;5.43;1.45;;;21.30;49.10;;;;;;5046514;28;20080;-49
2024/01/17 00:25:11;;;;;;;6.82;1.20;;;21.30;49.50;;;;;;5045767;28;20172;-50
2024/01/17 00:27:38;;;;;;;7.13;1.13;;;21.10;48.90;;;;;;5046227;28;20073;-58
2024/01/17 00:30:06;;;;;;;4.75;1.35;;;21.10;49.00;;;;;;5064666;28;20119;-59
2024/01/17 00:32:34;;;;;;;6.93;1.40;;;21.10;49.90;;;;;;5064457;28;20084;-48
2024/01/17 00:35:00;;;;;;;7.13;1.55;;;21.00;49.60;;;;;;5046531;28;20105;-50
2024/01/17 00:37:27;;;;;;;19.58;3.10;;;20.90;49.70;;;;;;5049400;28;20123;-46
2024/01/17 00:39:54;;;;;;;19.95;2.78;;;20.80;50.20;;;;;;5043659;28;20126;-52
2024/01/17 00:42:20;;;;;;;19.27;9.32;;;20.60;49.50;;;;;;5064397;28;20080;-49
2024/01/17 00:44:47;;;;;;;12.02;2.15;;;20.50;51.00;;;;;;5045258;28;20163;-53
2024/01/17 00:47:14;;;;;;;19.63;2.20;;;20.40;50.30;;;;;;5044853;28;20081;-49
2024/01/17 00:49:41;;;;;;;30.38;2.72;;;20.30;51.40;;;;;;5046912;28;20168;-46
2024/01/17 00:52:09;;;;;;;38.78;4.13;;;20.20;50.80;;;;;;5043096;28;20169;-51
2024/01/17 00:54:36;;;;;;;33.63;3.88;;;20.00;51.20;;;;;;5046237;28;20129;-48
2024/01/17 00:57:03;;;;;;;20.38;3.97;;;19.90;52.10;;;;;;5042016;28;20086;-49
2024/01/17 00:59:30;;;;;;;25.70;4.25;;;19.70;52.10;;;;;;5061800;28;20447;-53
2024/01/17 01:01:56;;;;;;;29.90;4.88;;;19.50;51.90;;;;;;5038278;28;20615;-53
2024/01/17 01:04:23;;;;;;;34.90;5.05;;;19.40;52.00;;;;;;5041795;28;20104;-55
2024/01/17 01:06:51;;;;;;;41.88;4.97;;;19.20;52.50;;;;;;5041576;28;20524;-48
2024/01/17 01:09:18;;;;;;;33.92;6.28;;;19.10;52.90;;;;;;5044124;28;20164;-49
2024/01/17 01:11:46;;;;;;;32.63;5.30;;;18.90;53.40;;;;;;5041837;28;20087;-52
2024/01/17 01:14:13;;;;;;;51.88;6.50;;;18.70;53.60;;;;;;5062086;28;20591;-55
2024/01/17 01:16:41;;;;;;;49.63;6.20;;;18.60;54.20;;;;;;5045160;28;20081;-49
2024/01/17 01:19:07;;;;;;;56.47;6.20;;;18.50;54.40;;;;;;5038906;28;20080;-53
2024/01/17 01:21:34;;;;;;;43.97;6.05;;;18.40;54.50;;;;;;5058787;28;20080;-63
2024/01/17 01:24:01;;;;;;;47.70;5.97;;;18.30;55.10;;;;;;5062886;28;20077;-52
2024/01/17 01:26:27;;;;;;;38.58;6.13;;;18.20;55.00;;;;;;5042325;28;20081;-51
2024/01/17 01:28:54;;;;;;;29.92;6.35;;;18.10;55.50;;;;;;5037511;28;20085;-50
2024/01/17 01:31:21;;;;;;;62.15;8.25;;;18.00;55.80;;;;;;5042166;28;20085;-49
2024/01/17 01:33:47;;;;;;;61.13;9.45;;;18.00;56.60;;;;;;5048076;28;20076;-59
2024/01/17 01:36:14;;;;;;;65.82;9.88;;;17.90;57.00;;;;;;5039187;28;20595;-52
2024/01/17 01:38:40;;;;;;;60.65;10.07;;;17.80;58.00;;;;;;5054266;28;20175;-49
2024/01/17 01:41:08;;;;;;;69.97;9.20;;;17.80;58.40;;;;;;5059584;28;20203;-55
2024/01/17 01:43:34;;;;;;;66.57;9.75;;;17.80;59.00;;;;;;5057740;28;20080;-50
2024/01/17 01:46:04;;;;;;;47.03;8.65;;;17.70;59.60;;;;;;5043336;28;20161;-49
2024/01/17 01:48:32;;;;;;;52.25;8.80;;;17.70;59.50;;;;;;5054586;28;20505;-51
2024/01/17 01:50:59;;;;;;;59.58;9.07;;;17.50;59.30;;;;;;5040344;28;20181;-45
2024/01/17 01:53:28;;;;;;;71.72;8.85;;;17.40;59.10;;;;;;5026764;28;20081;-45
2024/01/17 01:55:56;;;;;;;42.65;8.18;;;17.30;59.30;;;;;;5043200;28;20140;-50
2024/01/17 01:58:27;;;;;;;50.50;9.68;;;17.20;62.50;;;;;;5037015;28;20128;-50
2024/01/17 02:00:55;;;;;;;67.60;10.82;;;17.20;63.10;;;;;;5060932;28;20093;-52
2024/01/17 02:03:25;;;;;;;55.95;9.32;;;17.10;63.20;;;;;;5036256;28;20081;-58
2024/01/17 02:05:53;;;;;;;57.75;8.85;;;17.00;63.40;;;;;;5060340;28;20134;-59
2024/01/17 02:08:20;;;;;;;54.08;8.20;;;16.90;63.70;;;;;;5060535;28;20077;-53
2024/01/17 02:10:46;;;;;;;57.80;9.57;;;16.90;64.40;;;;;;5042385;28;20084;-56
2024/01/17 02:13:13;;;;;;;46.70;8.88;;;16.80;64.80;;;;;;5059529;28;20077;-49
2024/01/17 02:15:40;;;;;;;70.38;10.48;;;16.70;64.70;;;;;;5058507;28;20591;-49
2024/01/17 02:18:07;;;;;;;50.25;9.52;;;16.60;64.60;;;;;;5045251;28;20101;-46
2024/01/17 02:20:34;;;;;;;48.25;9.25;;;16.50;64.30;;;;;;5060962;28;20119;-49
2024/01/17 02:23:02;;;;;;;67.55;10.43;;;16.40;64.60;;;;;;5060248;28;20112;-51
2024/01/17 02:25:29;;;;;;;60.55;11.43;;;16.30;66.00;;;;;;5037110;28;20080;-47
2024/01/17 02:27:55;;;;;;;82.68;11.88;;;16.30;67.30;;;;;;5057763;28;20081;-50
2024/01/17 02:30:22;;;;;;;69.28;12.32;;;16.30;67.00;;;;;;5057515;28;20114;-60
2024/01/17 02:32:49;;;;;;;66.20;12.05;;;16.30;66.70;;;;;;5013304;28;20553;-48
2024/01/17 02:35:16;;;;;;;61.33;12.10;;;16.20;67.60;;;;;;5059635;28;20108;-64
2024/01/17 02:37:42;;;;;;;58.75;12.10;;;16.00;66.80;;;;;;5062657;28;20689;-51
2024/01/17 02:40:09;;;;;;;68.72;14.40;;;16.00;67.90;;;;;;5042908;28;20073;-54
2024/01/17 02:42:36;;;;;;;90.30;14.98;;;16.10;68.90;;;;;;5035939;28;20500;-49
2024/01/17 02:45:02;;;;;;;73.95;15.25;;;16.00;68.50;;;;;;5037991;28;20247;-50
2024/01/17 02:47:29;;;;;;;86.40;15.45;;;15.90;68.60;;;;;;5042402;28;20077;-57
2024/01/17 02:49:57;;;;;;;105.07;16.73;;;15.90;70.00;;;;;;5039907;28;20124;-50
2024/01/17 02:52:24;;;;;;;96.47;16.83;;;15.90;70.40;;;;;;5040747;28;20084;-51
2024/01/17 02:54:50;;;;;;;98.97;16.75;;;15.90;70.30;;;;;;5041053;28;20109;-46
2024/01/17 02:57:20;;;;;;;83.47;17.65;;;15.90;70.70;;;;;;5044843;28;20133;-47
2024/01/17 02:59:46;;;;;;;81.80;16.90;;;15.90;70.50;;;;;;5041897;28;20444;-51
2024/01/17 03:02:13;;;;;;;92.05;16.55;;;15.90;70.60;;;;;;5059267;28;20164;-54
2024/01/17 03:04:41;;;;;;;89.60;16.90;;;15.80;70.50;;;;;;5055222;28;20076;-46
2024/01/17 03:07:10;;;;;;;81.10;17.98;;;15.70;70.60;;;;;;5037966;28;20088;-47
2024/01/17 03:09:37;;;;;;;69.63;15.75;;;15.70;71.60;;;;;;5026942;28;20085;-55
2024/01/17 03:12:04;;;;;;;92.95;17.60;;;15.70;71.90;;;;;;5040002;28;20081;-51
2024/01/17 03:14:31;;;;;;;64.53;17.55;;;15.50;71.40;;;;;;5039121;28;20105;-49
2024/01/17 03:16:58;;;;;;;118.03;19.25;;;15.50;72.00;;;;;;5063864;28;20073;-53
2024/01/17 03:19:25;;;;;;;112.40;18.10;;;16.60;70.90;;;;;;5038356;28;20138;-54
2024/01/17 03:21:52;;;;;;;101.93;18.30;;;17.50;68.70;;;;;;5039423;28;20310;-55
2024/01/17 03:24:18;;;;;;;119.07;20.00;;;17.80;66.00;;;;;;5033876;28;20164;-51
2024/01/17 03:26:45;;;;;;;114.40;21.25;;;17.90;66.20;;;;;;5062834;28;20076;-55
2024/01/17 03:29:13;;;;;;;125.93;23.52;;;18.10;65.60;;;;;;5038931;28;20172;-50
2024/01/17 03:31:39;;;;;;;127.97;23.35;;;18.40;65.20;;;;;;5041383;28;20438;-51
2024/01/17 03:34:06;;;;;;;120.82;23.65;;;18.50;64.40;;;;;;5060195;28;20126;-52
2024/01/17 03:36:32;;;;;;;131.95;24.77;;;18.40;65.10;;;;;;5046465;28;20073;-54
2024/01/17 03:38:59;;;;;;;120.30;24.83;;;18.90;64.40;;;;;;5040119;28;20074;-55
2024/01/17 03:41:25;;;;;;;134.68;27.63;;;18.90;63.90;;;;;;5060548;28;20077;-56
2024/01/17 03:43:53;;;;;;;144.30;27.83;;;18.70;64.50;;;;;;5058700;28;20088;-51
2024/01/17 03:46:20;;;;;;;151.00;31.10;;;18.60;65.90;;;;;;5046146;28;20085;-53
2024/01/17 03:48:47;;;;;;;160.80;33.25;;;18.40;64.60;;;;;;5045894;28;20121;-55
2024/01/17 03:51:15;;;;;;;149.32;34.63;;;18.20;66.20;;;;;;5047460;28;20080;-55
2024/01/17 03:53:42;;;;;;;143.50;36.95;;;18.10;66.70;;;;;;5042413;28;20135;-58
2024/01/17 03:56:09;;;;;;;157.10;36.00;;;18.10;67.00;;;;;;5062130;28;20073;-52
2024/01/17 03:58:41;;;;;;;142.23;33.58;;;18.10;66.80;;;;;;5062896;28;20089;-54
2024/01/17 04:01:12;;;;;;;186.40;37.78;;;17.80;66.10;;;;;;5029304;28;20976;-53
2024/01/17 04:03:40;;;;;;;185.48;35.13;;;17.70;65.90;;;;;;5063536;28;20069;-50
2024/01/17 04:06:11;;;;;;;179.77;37.67;;;17.70;66.70;;;;;;5062450;28;20088;-55
2024/01/17 04:08:38;;;;;;;196.68;39.15;;;17.80;67.00;;;;;;5064428;28;20566;-58
2024/01/17 04:11:06;;;;;;;192.07;40.20;;;17.50;68.10;;;;;;5044640;28;20081;-52
2024/01/17 04:13:34;;;;;;;198.00;42.70;;;17.30;68.30;;;;;;5046463;28;20074;-55
2024/01/17 04:16:01;;;;;;;205.13;41.55;;;17.50;67.90;;;;;;5047548;28;20103;-54
2024/01/17 04:18:29;;;;;;;219.27;42.20;;;17.70;67.80;;;;;;5042156;28;20092;-53
2024/01/17 04:20:58;;;;;;;216.95;41.45;;;17.30;68.90;;;;;;5064444;28;20166;-56
2024/01/17 04:23:24;;;;;;;220.43;41.30;;;17.10;69.00;;;;;;5065378;28;20074;-52
2024/01/17 04:25:52;;;;;;;231.43;42.88;;;17.00;69.90;;;;;;5040327;28;20081;-54
2024/01/17 04:28:19;;;;;;;195.35;40.40;;;16.90;69.80;;;;;;5042275;28;20567;-54
2024/01/17 04:30:46;;;;;;;217.05;43.88;;;16.80;69.90;;;;;;5045170;28;20095;-50
2024/01/17 04:33:14;;;;;;;228.57;43.85;;;16.70;69.80;;;;;;5042106;28;20080;-55
2024/01/17 04:35:41;;;;;;;215.07;41.45;;;16.60;70.60;;;;;;5063593;28;20109;-54
2024/01/17 04:38:09;;;;;;;200.57;40.78;;;16.60;71.20;;;;;;5044276;28;20069;-50
2024/01/17 04:40:36;;;;;;;204.70;40.13;;;16.50;71.50;;;;;;5046737;28;20152;-51
2024/01/17 04:43:04;;;;;;;200.75;40.50;;;16.50;72.20;;;;;;5065880;28;20091;-54
2024/01/17 04:45:32;;;;;;;194.45;38.58;;;16.30;72.50;;;;;;5048639;28;20113;-55
2024/01/17 04:48:00;;;;;;;209.68;40.08;;;16.20;72.80;;;;;;5044355;28;20134;-53
2024/01/17 04:50:29;;;;;;;221.32;40.20;;;16.10;72.70;;;;;;5045697;28;20088;-50
2024/01/17 04:52:56;;;;;;;216.18;42.95;;;16.10;74.10;;;;;;5059760;28;20202;-53
2024/01/17 04:55:22;;;;;;;175.63;41.45;;;16.10;73.70;;;;;;5059114;28;20135;-51
2024/01/17 04:57:51;;;;;;;181.23;40.40;;;15.90;72.90;;;;;;5048544;28;20156;-56
2024/01/17 05:00:19;;;;;;;201.52;41.70;;;15.80;73.90;;;;;;5041003;28;20081;-50
2024/01/17 05:02:47;;;;;;;231.63;43.72;;;15.90;74.20;;;;;;5038402;28;20523;-52
2024/01/17 05:05:14;;;;;;;195.82;43.25;;;15.80;74.60;;;;;;5040378;28;20580;-53
2024/01/17 05:07:41;;;;;;;209.52;45.42;;;15.90;74.50;;;;;;5039536;28;20069;-55
2024/01/17 05:10:09;;;;;;;207.10;45.42;;;15.80;75.10;;;;;;5047617;28;20077;-53
2024/01/17 05:12:36;;;;;;;208.48;44.15;;;15.80;74.60;;;;;;5041057;28;20128;-59
2024/01/17 05:15:04;;;;;;;232.27;42.92;;;15.70;74.40;;;;;;5040877;28;20123;-51
2024/01/17 05:17:31;;;;;;;250.63;43.20;;;15.60;75.60;;;;;;5065870;28;20126;-50
2024/01/17 05:20:01;;;;;;;194.93;39.75;;;15.60;75.60;;;;;;5047504;28;20126;-53
2024/01/17 05:22:31;;;;;;;227.05;40.92;;;15.40;76.60;;;;;;5028443;28;20089;-55
2024/01/17 05:24:59;;;;;;;202.32;41.60;;;15.40;75.70;;;;;;5024772;28;20077;-53
2024/01/17 05:27:27;;;;;;;180.32;38.95;;;15.30;76.30;;;;;;5044152;28;20073;-50
2024/01/17 05:29:54;;;;;;;210.38;40.70;;;15.20;76.70;;;;;;5057684;28;20077;-50
2024/01/17 05:32:23;;;;;;;204.88;39.83;;;15.20;77.20;;;;;;5039987;28;20607;-53
2024/01/17 05:34:52;;;;;;;205.32;40.97;;;15.20;77.20;;;;;;5044675;28;20104;-50
2024/01/17 05:37:21;;;;;;;195.32;40.25;;;15.10;77.30;;;;;;5063773;28;20069;-50
2024/01/17 05:39:50;;;;;;;190.25;37.35;;;15.00;78.10;;;;;;5061954;28;20069;-50
2024/01/17 05:42:16;;;;;;;198.10;39.90;;;14.90;78.50;;;;;;5042975;28;20077;-51
2024/01/17 05:44:43;;;;;;;182.38;38.95;;;15.00;78.10;;;;;;5060982;28;20121;-53
2024/01/17 05:47:10;;;;;;;179.20;39.30;;;14.90;78.50;;;;;;5040729;28;20120;-48
2024/01/17 05:49:36;;;;;;;202.43;41.10;;;14.90;79.50;;;;;;5062923;28;20070;-50
2024/01/17 05:52:03;;;;;;;183.45;42.03;;;14.80;80.00;;;;;;5038597;28;20081;-52
2024/01/17 05:54:30;;;;;;;182.90;41.42;;;14.70;80.60;;;;;;5062536;28;20105;-51
2024/01/17 05:56:56;;;;;;;209.32;43.95;;;14.70;81.00;;;;;;5058389;28;20097;-57
2024/01/17 05:59:24;;;;;;;197.05;43.72;;;14.70;81.30;;;;;;5057900;28;20073;-50
2024/01/17 06:01:50;;;;;;;191.48;45.05;;;14.60;81.60;;;;;;5036574;28;20388;-54
2024/01/17 06:04:17;;;;;;;179.65;42.10;;;14.50;82.40;;;;;;5044727;28;20073;-51
2024/01/17 06:06:44;;;;;;;208.68;46.60;;;14.50;82.20;;;;;;5038037;28;20101;-55
2024/01/17 06:09:13;;;;;;;192.23;45.85;;;14.30;83.10;;;;;;5041804;28;20081;-52
2024/01/17 06:11:40;;;;;;;213.45;49.35;;;14.40;81.50;;;;;;5039061;28;20077;-52
2024/01/17 06:14:08;;;;;;;230.82;61.17;;;14.50;81.80;;;;;;5061828;28;20097;-53
2024/01/17 06:16:35;;;;;;;294.50;87.38;;;14.50;81.70;;;;;;5040638;28;20172;-55
2024/01/17 06:19:01;;;;;;;237.88;74.10;;;14.40;81.10;;;;;;5064768;28;20065;-51
2024/01/17 06:21:28;;;;;;;243.63;75.38;;;14.40;82.30;;;;;;5057485;28;20121;-50
2024/01/17 06:23:54;;;;;;;245.65;70.57;;;14.40;82.80;;;;;;5040789;28;20085;-54
2024/01/17 06:26:21;;;;;;;271.15;71.25;;;14.30;83.70;;;;;;5042748;28;20088;-52
2024/01/17 06:28:48;;;;;;;254.48;65.20;;;14.20;83.70;;;;;;5042571;28;20068;-53
2024/01/17 06:31:25;;;;;;;247.00;65.60;;;14.20;83.80;;;;;;5036535;28;20080;-53
2024/01/17 06:33:55;;;;;;;210.40;60.35;;;14.10;84.50;;;;;;5044485;28;20080;-61
2024/01/17 06:36:22;;;;;;;286.20;64.55;;;14.00;84.60;;;;;;5042370;28;20531;-56
2024/01/17 06:38:49;;;;;;;248.27;59.97;;;13.90;84.40;;;;;;5040839;28;20111;-54
2024/01/17 06:41:17;;;;;;;238.73;60.67;;;13.90;84.00;;;;;;5059111;28;20100;-53
2024/01/17 06:43:45;;;;;;;239.40;59.38;;;14.00;84.80;;;;;;5058395;28;20077;-54
2024/01/17 06:46:12;;;;;;;241.10;60.42;;;13.90;86.60;;;;;;5042646;28;20124;-57
2024/01/17 06:48:38;;;;;;;227.60;57.88;;;13.90;85.80;;;;;;5046526;28;20081;-53
2024/01/17 06:51:06;;;;;;;241.35;60.03;;;13.80;87.00;;;;;;5058794;28;20528;-53
2024/01/17 06:53:34;;;;;;;224.60;57.83;;;13.70;86.40;;;;;;5038720;28;20104;-50
2024/01/17 06:56:00;;;;;;;252.38;61.30;;;13.70;87.50;;;;;;5040804;28;20097;-55
2024/01/17 06:58:27;;;;;;;213.95;57.78;;;13.60;86.70;;;;;;5062752;28;20081;-52
2024/01/17 07:00:53;;;;;;;215.43;57.85;;;13.60;87.40;;;;;;5042313;28;20208;-51
2024/01/17 07:03:20;;;;;;;229.00;57.25;;;13.60;88.00;;;;;;5041026;28;20443;-51
2024/01/17 07:05:47;;;;;;;240.82;55.10;;;13.50;87.90;;;;;;5023091;28;20084;-54
2024/01/17 07:08:13;;;;;;;223.52;52.45;;;13.50;87.60;;;;;;5058279;28;20108;-51
2024/01/17 07:10:40;;;;;;;201.50;54.38;;;13.50;87.40;;;;;;5043684;28;20100;-52
2024/01/17 07:13:07;;;;;;;227.48;53.55;;;13.50;88.20;;;;;;5059030;28;20535;-50
2024/01/17 07:15:34;;;;;;;217.20;55.40;;;13.50;87.90;;;;;;5064542;28;20109;-51
2024/01/17 07:18:00;;;;;;;198.38;51.13;;;13.50;88.10;;;;;;5044558;28;20077;-52
2024/01/17 07:20:27;;;;;;;196.32;51.70;;;13.40;88.70;;;;;;5061053;28;20076;-54
2024/01/17 07:22:53;;;;;;;223.70;55.80;;;13.40;89.30;;;;;;5041964;28;20076;-52
2024/01/17 07:25:20;;;;;;;184.70;50.13;;;13.40;89.00;;;;;;5035735;28;20380;-56
2024/01/17 07:27:47;;;;;;;192.10;54.58;;;13.30;90.00;;;;;;5039031;28;20089;-53
2024/01/17 07:30:15;;;;;;;220.07;56.95;;;13.30;90.20;;;;;;5054352;28;20070;-53
2024/01/17 07:32:42;;;;;;;220.90;52.40;;;13.20;89.90;;;;;;5038749;28;21518;-50
2024/01/17 07:35:09;;;;;;;203.00;53.92;;;13.30;89.90;;;;;;5045783;28;20132;-53
2024/01/17 07:37:35;;;;;;;201.73;53.60;;;13.40;89.60;;;;;;5040930;28;20095;-51
2024/01/17 07:40:02;;;;;;;173.63;50.75;;;13.30;90.10;;;;;;5060246;28;20077;-59
2024/01/17 07:42:29;;;;;;;217.07;53.10;;;13.20;90.70;;;;;;5041266;28;20108;-51
2024/01/17 07:44:55;;;;;;;202.90;52.90;;;13.10;90.60;;;;;;5059941;28;20112;-54
2024/01/17 07:47:23;;;;;;;195.82;51.40;;;13.10;90.60;;;;;;5040010;28;20092;-56
2024/01/17 07:49:51;;;;;;;187.00;51.00;;;13.00;90.40;;;;;;5060442;28;20089;-56
2024/01/17 07:52:17;;;;;;;177.70;48.33;;;13.10;90.40;;;;;;5060147;28;20454;-51
2024/01/17 07:54:45;;;;;;;187.88;51.00;;;13.20;90.30;;;;;;5040984;28;20112;-55
2024/01/17 07:57:12;;;;;;;179.00;52.08;;;13.20;90.50;;;;;;5058955;28;20073;-53
2024/01/17 07:59:38;;;;;;;176.07;49.38;;;13.10;91.10;;;;;;5036949;28;20492;-54
2024/01/17 08:02:05;;;;;;;192.68;49.70;;;12.90;90.60;;;;;;5044464;28;20073;-53
2024/01/17 08:04:32;;;;;;;185.02;50.00;;;12.80;90.60;;;;;;5041038;28;20081;-51
2024/01/17 08:06:59;;;;;;;174.77;49.50;;;12.90;91.30;;;;;;5056937;28;20077;-56
2024/01/17 08:09:28;;;;;;;178.73;51.33;;;12.90;91.20;;;;;;5057598;28;20112;-55
2024/01/17 08:11:59;;;;;;;173.32;48.42;;;12.80;91.80;;;;;;5038108;28;21308;-54
2024/01/17 08:14:26;;;;;;;168.20;50.45;;;12.80;91.50;;;;;;5040838;28;20199;-54
2024/01/17 08:16:53;;;;;;;151.88;49.67;;;12.80;91.50;;;;;;5043563;28;20077;-51
2024/01/17 08:19:20;;;;;;;174.35;52.53;;;12.80;91.80;;;;;;5042676;28;20077;-60
2024/01/17 08:21:47;;;;;;;201.20;51.65;;;12.70;92.20;;;;;;5059663;28;20189;-49
2024/01/17 08:24:15;;;;;;;190.50;50.28;;;12.70;92.20;;;;;;5044201;28;20084;-52
2024/01/17 08:26:42;;;;;;;170.77;51.60;;;12.50;92.50;;;;;;5043215;28;20079;-54
2024/01/17 08:29:09;;;;;;;180.13;50.70;;;12.50;92.10;;;;;;5044839;28;20134;-50
2024/01/17 08:31:37;;;;;;;178.25;51.80;;;12.50;92.60;;;;;;5048042;28;20077;-52
2024/01/17 08:34:05;;;;;;;194.95;53.20;;;12.50;92.60;;;;;;5039781;28;20215;-49
2024/01/17 08:36:34;;;;;;;197.65;51.67;;;12.40;92.50;;;;;;5026162;28;20540;-53
2024/01/17 08:39:04;;;;;;;174.40;55.83;;;12.40;92.90;;;;;;5023807;28;20119;-54
2024/01/17 08:41:33;;;;;;;173.52;56.10;;;12.40;93.20;;;;;;5042253;28;20074;-52
2024/01/17 08:44:01;;;;;;;210.00;59.20;;;12.30;93.20;;;;;;5044902;28;20084;-49
2024/01/17 08:46:32;;;;;;;201.68;56.15;;;12.30;93.40;;;;;;5042395;28;20541;-51
2024/01/17 08:48:59;;;;;;;180.18;65.07;;;12.30;93.90;;;;;;5033585;28;20073;-49
2024/01/17 08:51:28;;;;;;;185.98;56.33;;;12.20;94.00;;;;;;5041978;28;21121;-51
2024/01/17 08:53:58;;;;;;;194.15;55.88;;;12.20;93.70;;;;;;5063791;28;20077;-52
2024/01/17 08:56:27;;;;;;;208.77;57.55;;;12.20;94.00;;;;;;5026723;28;20135;-59
2024/01/17 08:59:02;;;;;;;174.18;56.67;;;12.30;94.10;;;;;;5042509;28;20440;-51
2024/01/17 09:01:31;;;;;;;173.60;55.55;;;12.40;94.50;;;;;;5024078;28;20527;-52
2024/01/17 09:03:59;;;;;;;174.48;55.00;;;12.40;94.30;;;;;;5041144;28;20535;-52
2024/01/17 09:06:26;;;;;;;202.55;58.92;;;12.20;94.10;;;;;;5044587;28;20081;-57
2024/01/17 09:08:57;;;;;;;184.25;58.17;;;12.20;94.40;;;;;;5060608;28;20108;-53
2024/01/17 09:11:24;;;;;;;183.23;56.72;;;12.20;94.50;;;;;;5044596;28;20480;-54
2024/01/17 09:13:55;;;;;;;179.55;57.80;;;12.20;94.60;;;;;;5065003;28;20096;-52
2024/01/17 09:16:23;;;;;;;166.27;55.22;;;12.10;94.30;;;;;;5044885;28;20096;-53
2024/01/17 09:18:49;;;;;;;188.43;55.03;;;12.20;94.50;;;;;;5044150;28;20085;-57
2024/01/17 09:21:18;;;;;;;176.75;56.85;;;12.20;94.10;;;;;;5042256;28;20080;-55
2024/01/17 09:23:44;;;;;;;197.02;54.25;;;12.30;94.10;;;;;;5039963;28;20142;-51
2024/01/17 09:26:12;;;;;;;169.73;54.83;;;12.30;94.80;;;;;;5038365;28;20073;-57
2024/01/17 09:28:38;;;;;;;165.95;53.90;;;12.20;94.80;;;;;;5040304;28;20215;-54
2024/01/17 09:31:07;;;;;;;161.43;54.47;;;12.10;95.10;;;;;;5040636;28;20599;-52
2024/01/17 09:33:35;;;;;;;162.38;56.08;;;12.00;95.00;;;;;;5043350;28;20163;-52
2024/01/17 09:36:01;;;;;;;165.32;55.35;;;11.90;95.10;;;;;;5054767;28;20416;-53
2024/01/17 09:38:28;;;;;;;161.07;55.85;;;12.00;95.40;;;;;;5060847;28;20183;-54
2024/01/17 09:40:55;;;;;;;174.38;56.88;;;12.00;95.20;;;;;;5044716;28;20084;-57
2024/01/17 09:43:26;;;;;;;168.32;60.10;;;11.90;95.00;;;;;;5043873;28;20126;-53
2024/01/17 09:46:02;;;;;;;166.38;59.58;;;11.80;95.00;;;;;;5060599;28;21385;-53
2024/01/17 09:48:29;;;;;;;167.18;59.42;;;12.00;95.60;;;;;;5038321;28;20072;-52
2024/01/17 09:50:59;;;;;;;166.90;58.53;;;12.00;95.40;;;;;;5059349;28;20087;-57
2024/01/17 09:53:31;;;;;;;152.30;57.60;;;12.10;95.20;;;;;;5060060;28;20081;-53
2024/01/17 09:55:59;;;;;;;150.68;57.67;;;12.00;95.00;;;;;;5041784;28;20555;-52
2024/01/17 09:58:30;;;;;;;159.70;57.60;;;12.10;95.00;;;;;;5042143;28;20447;-50
2024/01/17 10:01:00;;;;;;;167.60;57.72;;;12.10;95.30;;;;;;5040877;28;20150;-53
2024/01/17 10:03:30;;;;;;;144.32;56.78;;;12.00;95.10;;;;;;5044143;28;20961;-49
2024/01/17 10:05:58;;;;;;;154.63;57.33;;;12.10;95.10;;;;;;5044199;28;20085;-56
2024/01/17 10:08:27;;;;;;;155.93;58.58;;;11.90;95.00;;;;;;5043355;28;20387;-59
2024/01/17 10:10:55;;;;;;;150.82;56.35;;;12.00;95.30;;;;;;5042821;28;20081;-58
2024/01/17 10:13:22;;;;;;;162.98;61.72;;;11.80;95.40;;;;;;5053995;28;20086;-57
2024/01/17 10:15:49;;;;;;;143.75;55.72;;;11.70;95.90;;;;;;5041505;28;20100;-50
2024/01/17 10:18:15;;;;;;;144.68;57.40;;;11.60;96.00;;;;;;5044400;28;20088;-49
2024/01/17 10:20:46;;;;;;;150.02;56.53;;;11.50;95.80;;;;;;5041540;28;20622;-54
2024/01/17 10:23:13;;;;;;;151.15;55.13;;;11.60;95.90;;;;;;5025843;28;20442;-54
2024/01/17 10:25:43;;;;;;;136.13;53.38;;;11.70;95.70;;;;;;5038843;28;20135;-51
2024/01/17 10:28:11;;;;;;;144.15;52.20;;;11.60;95.80;;;;;;5037348;28;20092;-52
2024/01/17 10:30:44;;;;;;;146.75;54.47;;;11.50;95.70;;;;;;5059580;28;20073;-53
2024/01/17 10:33:11;;;;;;;138.15;52.03;;;11.40;95.50;;;;;;5044020;28;20081;-55
2024/01/17 10:35:38;;;;;;;130.75;51.33;;;11.40;95.90;;;;;;5041716;28;20277;-52
2024/01/17 10:38:06;;;;;;;142.63;50.45;;;11.30;96.10;;;;;;5038634;28;20116;-54
2024/01/17 10:40:34;;;;;;;139.40;52.42;;;11.30;96.50;;;;;;5039513;28;20088;-53
2024/01/17 10:43:10;;;;;;;120.93;49.25;;;11.50;96.50;;;;;;5055523;28;20099;-51
2024/01/17 10:45:43;;;;;;;131.40;49.92;;;11.60;96.20;;;;;;5036871;28;20136;-50
2024/01/17 10:48:11;;;;;;;124.55;48.85;;;11.60;96.10;;;;;;5036725;28;20105;-54
2024/01/17 10:50:38;;;;;;;116.22;47.72;;;11.50;96.50;;;;;;5042312;28;20176;-51
2024/01/17 10:53:08;;;;;;;116.68;47.05;;;11.50;96.50;;;;;;5038106;28;20082;-55
2024/01/17 10:55:44;;;;;;;121.80;48.42;;;11.60;96.40;;;;;;5035063;28;21355;-52
2024/01/17 10:58:15;;;;;;;112.47;46.28;;;11.60;96.50;;;;;;5037344;28;20176;-52
2024/01/17 11:00:48;;;;;;;139.38;48.90;;;11.50;96.80;;;;;;5036256;28;20165;-51
2024/01/17 11:03:28;;;;;;;114.22;47.47;;;11.40;96.50;;;;;;5042730;28;20081;-51
2024/01/17 11:05:59;;;;;;;120.13;48.63;;;11.40;96.50;;;;;;5039973;28;20414;-52
2024/01/17 11:08:26;;;;;;;115.43;47.67;;;11.30;96.60;;;;;;5021425;28;20082;-48
2024/01/17 11:10:56;;;;;;;122.40;47.67;;;11.20;96.90;;;;;;5039647;28;20113;-53
2024/01/17 11:13:25;;;;;;;129.80;47.30;;;11.20;97.30;;;;;;5043759;28;20105;-52
2024/01/17 11:15:55;;;;;;;111.50;46.03;;;11.10;97.60;;;;;;5034792;28;20105;-52
2024/01/17 11:18:25;;;;;;;113.07;46.78;;;11.30;97.50;;;;;;5020703;28;20968;-52
2024/01/17 11:20:52;;;;;;;116.95;44.88;;;11.10;97.40;;;;;;5040972;28;20100;-52
2024/01/17 11:23:46;;;;;;;109.10;46.42;;;11.00;97.70;;;;;;5037414;28;20085;-52
2024/01/17 11:26:35;;;;;;;120.53;46.08;;;10.80;97.80;;;;;;5040011;28;20089;-57
2024/01/17 11:29:43;;;;;;;102.57;43.53;;;10.80;98.30;;;;;;5035348;28;20083;-53
2024/01/17 11:32:28;;;;;;;116.57;44.17;;;10.80;99.10;;;;;;5035700;28;20077;-52
2024/01/17 11:35:00;;;;;;;102.35;42.97;;;10.80;98.60;;;;;;5036836;28;20239;-51
2024/01/17 11:37:31;;;;;;;116.13;44.92;;;11.00;98.70;;;;;;5035888;28;20439;-52
2024/01/17 11:40:03;;;;;;;112.35;43.30;;;11.10;98.30;;;;;;5034849;28;20105;-54
2024/01/17 11:42:34;;;;;;;110.78;43.35;;;11.10;97.90;;;;;;5036805;28;20119;-51
2024/01/17 11:45:04;;;;;;;98.38;41.15;;;10.80;98.40;;;;;;5032682;28;20200;-52
2024/01/17 11:47:30;;;;;;;102.72;41.33;;;10.70;98.50;;;;;;5034136;28;20173;-52
2024/01/17 11:49:58;;;;;;;111.70;43.22;;;10.70;98.70;;;;;;5040534;28;20116;-52
2024/01/17 11:52:45;;;;;;;104.72;42.22;;;10.80;98.80;;;;;;5037824;28;20147;-53
2024/01/17 11:55:12;;;;;;;108.68;45.70;;;11.00;98.50;;;;;;5036200;28;20112;-53
2024/01/17 11:57:40;;;;;;;94.65;45.08;;;10.90;98.00;;;;;;5041746;28;20074;-52
2024/01/17 12:00:13;;;;;;;95.13;41.28;;;10.80;98.10;;;;;;5039358;28;20092;-51
2024/01/17 12:02:44;;;;;;;102.85;40.80;;;10.90;98.30;;;;;;5040305;28;20089;-53
2024/01/17 12:05:11;;;;;;;89.70;42.38;;;10.90;98.20;;;;;;5039553;28;21561;-51
2024/01/17 12:07:49;;;;;;;100.20;41.20;;;10.90;98.00;;;;;;5027947;28;20077;-50
2024/01/17 12:10:16;;;;;;;106.15;42.08;;;10.80;98.40;;;;;;5039420;28;20077;-50
2024/01/17 12:12:46;;;;;;;97.90;41.35;;;10.60;98.30;;;;;;5038364;28;20091;-53
2024/01/17 12:15:16;;;;;;;98.43;41.30;;;10.50;98.70;;;;;;5038850;28;20589;-57
2024/01/17 12:17:46;;;;;;;97.35;40.47;;;10.50;98.90;;;;;;5038876;28;20089;-55
2024/01/17 12:20:13;;;;;;;88.97;39.83;;;10.50;99.20;;;;;;5040186;28;20100;-54
2024/01/17 12:22:41;;;;;;;97.53;41.22;;;10.50;99.30;;;;;;5039547;28;20078;-49
2024/01/17 12:25:10;;;;;;;96.43;41.03;;;10.50;99.00;;;;;;5040606;28;20081;-50
2024/01/17 12:27:37;;;;;;;108.80;41.38;;;10.50;99.40;;;;;;5039822;28;20077;-54